Time,TemperatureF,DewpointF,PressureIn,WindDirection,WindDirectionDegrees,WindSpeedMPH,WindSpeedGustMPH,Humidity,HourlyPrecipIn,Conditions,Clouds,dailyrainin,SoftwareType,DateUTC
2013-02-08 00:05:00,57.0,56.0,29.92,West,281,0.0,1.0,97,0.00,,,0.00,weatherlink.com 1.10,2013-02-08 06:05:00,
2013-02-08 00:20:00,57.1,56.0,29.92,West,274,0.0,7.0,96,0.00,,,0.00,weatherlink.com 1.10,2013-02-08 06:20:00,
2013-02-08 00:35:00,57.0,56.0,29.93,West,273,0.0,3.0,95,0.00,,,0.00,weatherlink.com 1.10,2013-02-08 06:35:00,
2013-02-08 00:50:00,57.1,56.0,29.93,West,276,0.0,1.0,95,0.00,,,0.00,weatherlink.com 1.10,2013-02-08 06:50:00,
2013-02-08 01:05:00,57.0,56.0,29.93,WSW,247,0.0,1.0,95,0.00,,,0.00,weatherlink.com 1.10,2013-02-08 07:05:00,
2013-02-08 01:20:00,56.9,55.0,29.93,NW,318,1.0,4.0,94,0.00,,,0.00,weatherlink.com 1.10,2013-02-08 07:20:00,
2013-02-08 01:35:00,56.8,55.0,29.93,WNW,294,0.0,1.0,95,0.00,,,0.00,weatherlink.com 1.10,2013-02-08 07:35:00,
2013-02-08 01:50:00,56.7,55.0,29.93,WNW,287,0.0,3.0,94,0.00,,,0.00,weatherlink.com 1.10,2013-02-08 07:50:00,
2013-02-08 02:20:00,56.6,55.0,29.93,West,262,0.0,0.0,94,0.00,,,0.00,weatherlink.com 1.10,2013-02-08 08:20:00,
2013-02-08 02:35:00,56.5,55.0,29.93,SW,236,0.0,1.0,95,0.00,,,0.00,weatherlink.com 1.10,2013-02-08 08:35:00,
2013-02-08 02:50:00,56.5,55.0,29.94,SW,236,0.0,0.0,95,0.00,,,0.00,weatherlink.com 1.10,2013-02-08 08:50:00,
2013-02-08 03:06:00,56.4,55.0,29.94,SW,236,0.0,0.0,95,0.00,,,0.00,weatherlink.com 1.10,2013-02-08 09:06:00,
2013-02-08 03:21:00,56.3,55.0,29.94,WNW,301,0.0,0.0,95,0.00,,,0.00,weatherlink.com 1.10,2013-02-08 09:21:00,
2013-02-08 03:36:00,56.2,55.0,29.94,WNW,301,0.0,0.0,95,0.00,,,0.00,weatherlink.com 1.10,2013-02-08 09:36:00,
2013-02-08 03:51:00,56.1,55.0,29.95,WNW,301,0.0,0.0,95,0.00,,,0.00,weatherlink.com 1.10,2013-02-08 09:51:00,
2013-02-08 04:06:00,56.1,55.0,29.95,WNW,301,0.0,0.0,95,0.00,,,0.00,weatherlink.com 1.10,2013-02-08 10:06:00,
2013-02-08 04:21:00,56.1,55.0,29.95,WSW,241,0.0,1.0,95,0.00,,,0.00,weatherlink.com 1.10,2013-02-08 10:21:00,
2013-02-08 04:36:00,56.0,55.0,29.96,WSW,241,0.0,1.0,95,0.00,,,0.00,weatherlink.com 1.10,2013-02-08 10:36:00,
2013-02-08 04:51:00,55.8,54.0,29.96,West,264,0.0,1.0,95,0.00,,,0.00,weatherlink.com 1.10,2013-02-08 10:51:00,
2013-02-08 05:06:00,55.7,54.0,29.97,WNW,293,0.0,1.0,95,0.00,,,0.00,weatherlink.com 1.10,2013-02-08 11:06:00,
2013-02-08 05:21:00,55.5,54.0,29.98,North,359,0.0,1.0,95,0.00,,,0.00,weatherlink.com 1.10,2013-02-08 11:21:00,
2013-02-08 05:36:00,55.5,54.0,29.99,NW,304,0.0,1.0,96,0.00,,,0.00,weatherlink.com 1.10,2013-02-08 11:36:00,
2013-02-08 05:51:00,55.5,54.0,29.99,WNW,295,0.0,1.0,96,0.00,,,0.00,weatherlink.com 1.10,2013-02-08 11:51:00,
2013-02-08 06:06:00,55.4,54.0,30.00,WNW,295,0.0,1.0,96,0.00,,,0.00,weatherlink.com 1.10,2013-02-08 12:06:00,
2013-02-08 06:21:00,55.4,54.0,29.99,WNW,284,1.0,1.0,96,0.00,,,0.00,weatherlink.com 1.10,2013-02-08 12:21:00,
2013-02-08 06:36:00,55.3,54.0,29.99,WNW,284,0.0,1.0,96,0.00,,,0.00,weatherlink.com 1.10,2013-02-08 12:36:00,
2013-02-08 06:51:00,55.3,54.0,29.99,WNW,284,0.0,0.0,96,0.00,,,0.00,weatherlink.com 1.10,2013-02-08 12:51:00,
2013-02-08 07:06:00,55.4,54.0,29.99,WNW,284,0.0,0.0,95,0.00,,,0.00,weatherlink.com 1.10,2013-02-08 13:06:00,
2013-02-08 07:21:00,55.4,54.0,30.00,WNW,284,0.0,0.0,93,0.00,,,0.00,weatherlink.com 1.10,2013-02-08 13:21:00,
2013-02-08 07:36:00,56.1,54.0,30.00,WNW,284,0.0,0.0,93,0.00,,,0.00,weatherlink.com 1.10,2013-02-08 13:36:00,
2013-02-08 07:51:00,56.7,55.0,30.01,SSW,207,2.0,2.0,93,0.00,,,0.00,weatherlink.com 1.10,2013-02-08 13:51:00,
2013-02-08 08:06:00,56.9,54.0,30.01,SW,232,0.0,2.0,90,0.00,,,0.00,weatherlink.com 1.10,2013-02-08 14:06:00,
2013-02-08 08:21:00,57.2,54.0,30.02,SSE,147,1.0,4.0,90,0.00,,,0.00,weatherlink.com 1.10,2013-02-08 14:21:00,
2013-02-08 08:36:00,58.1,55.0,30.02,SSE,149,0.0,3.0,89,0.00,,,0.00,weatherlink.com 1.10,2013-02-08 14:36:00,
2013-02-08 08:51:00,58.3,55.0,30.02,SW,228,0.0,2.0,87,0.00,,,0.00,weatherlink.com 1.10,2013-02-08 14:51:00,
2013-02-08 09:06:00,59.8,56.0,30.02,SSE,166,1.0,2.0,86,0.00,,,0.00,weatherlink.com 1.10,2013-02-08 15:06:00,
2013-02-08 09:21:00,60.4,56.0,30.03,West,278,1.0,1.0,84,0.00,,,0.00,weatherlink.com 1.10,2013-02-08 15:21:00,
2013-02-08 09:36:00,60.0,56.0,30.04,NW,312,1.0,3.0,85,0.00,,,0.00,weatherlink.com 1.10,2013-02-08 15:36:00,
2013-02-08 09:51:00,60.1,56.0,30.04,West,269,0.0,1.0,85,0.00,,,0.00,weatherlink.com 1.10,2013-02-08 15:51:00,
2013-02-08 10:06:00,60.6,56.0,30.05,West,259,0.0,1.0,86,0.00,,,0.00,weatherlink.com 1.10,2013-02-08 16:06:00,
2013-02-08 10:21:00,60.9,56.0,30.05,ESE,115,1.0,1.0,84,0.00,,,0.00,weatherlink.com 1.10,2013-02-08 16:21:00,
2013-02-08 10:36:00,61.1,56.0,30.05,SSW,212,1.0,3.0,83,0.00,,,0.00,weatherlink.com 1.10,2013-02-08 16:36:00,
2013-02-08 10:51:00,61.5,57.0,30.05,WSW,242,0.0,2.0,84,0.00,,,0.00,weatherlink.com 1.10,2013-02-08 16:51:00,
2013-02-08 11:06:00,62.4,57.0,30.04,WNW,301,0.0,4.0,82,0.00,,,0.00,weatherlink.com 1.10,2013-02-08 17:06:00,
2013-02-08 11:21:00,63.7,58.0,30.04,WNW,294,1.0,5.0,81,0.00,,,0.00,weatherlink.com 1.10,2013-02-08 17:21:00,
2013-02-08 11:37:00,65.1,58.0,30.04,NW,309,2.0,4.0,78,0.00,,,0.00,weatherlink.com 1.10,2013-02-08 17:37:00,
2013-02-08 11:52:00,65.2,58.0,30.03,West,264,1.0,9.0,78,0.00,,,0.00,weatherlink.com 1.10,2013-02-08 17:52:00,
2013-02-08 12:07:00,65.9,59.0,30.02,NNW,337,1.0,8.0,77,0.00,,,0.00,weatherlink.com 1.10,2013-02-08 18:07:00,
2013-02-08 12:22:00,66.1,58.0,30.02,NW,323,2.0,5.0,76,0.00,,,0.00,weatherlink.com 1.10,2013-02-08 18:22:00,
2013-02-08 12:37:00,66.4,58.0,30.02,WSW,254,4.0,6.0,75,0.00,,,0.00,weatherlink.com 1.10,2013-02-08 18:37:00,
2013-02-08 12:52:00,66.8,59.0,30.02,West,262,1.0,9.0,75,0.00,,,0.00,weatherlink.com 1.10,2013-02-08 18:52:00,
2013-02-08 13:07:00,67.9,59.0,30.02,WNW,283,2.0,8.0,72,0.00,,,0.00,weatherlink.com 1.10,2013-02-08 19:07:00,
2013-02-08 13:22:00,67.7,58.0,30.02,WSW,257,2.0,9.0,72,0.00,,,0.00,weatherlink.com 1.10,2013-02-08 19:22:00,
2013-02-08 13:37:00,66.6,57.0,30.01,WNW,297,2.0,5.0,72,0.00,,,0.00,weatherlink.com 1.10,2013-02-08 19:37:00,
2013-02-08 13:52:00,68.2,58.0,30.01,WSW,253,3.0,9.0,69,0.00,,,0.00,weatherlink.com 1.10,2013-02-08 19:52:00,
2013-02-08 14:07:00,70.5,58.0,30.00,West,266,1.0,7.0,65,0.00,,,0.00,weatherlink.com 1.10,2013-02-08 20:07:00,
2013-02-08 14:22:00,71.1,57.0,30.01,West,262,4.0,5.0,62,0.00,,,0.00,weatherlink.com 1.10,2013-02-08 20:22:00,
2013-02-08 14:37:00,69.6,56.0,30.01,WNW,294,1.0,6.0,62,0.00,,,0.00,weatherlink.com 1.10,2013-02-08 20:37:00,
2013-02-08 14:52:00,70.7,56.0,30.00,West,277,2.0,9.0,59,0.00,,,0.00,weatherlink.com 1.10,2013-02-08 20:52:00,
2013-02-08 15:08:00,69.6,55.0,30.00,West,267,2.0,8.0,60,0.00,,,0.00,weatherlink.com 1.10,2013-02-08 21:08:00,
2013-02-08 15:22:00,68.2,55.0,30.01,WSW,247,3.0,5.0,64,0.00,,,0.00,weatherlink.com 1.10,2013-02-08 21:22:00,
2013-02-08 15:37:00,67.4,55.0,30.02,WNW,302,5.0,12.0,65,0.00,,,0.00,weatherlink.com 1.10,2013-02-08 21:37:00,
2013-02-08 15:52:00,61.2,57.0,30.03,WNW,302,1.0,3.0,85,0.03,,,0.03,weatherlink.com 1.10,2013-02-08 21:52:00,
2013-02-08 16:07:00,60.5,57.0,30.03,WNW,294,1.0,5.0,87,0.03,,,0.03,weatherlink.com 1.10,2013-02-08 22:07:00,
2013-02-08 16:22:00,60.1,57.0,30.03,West,271,0.0,5.0,89,0.03,,,0.03,weatherlink.com 1.10,2013-02-08 22:22:00,
2013-02-08 16:37:00,60.7,57.0,30.04,WNW,290,3.0,7.0,87,0.03,,,0.03,weatherlink.com 1.10,2013-02-08 22:37:00,
2013-02-08 16:53:00,60.7,57.0,30.04,WNW,298,2.0,4.0,86,0.00,,,0.03,weatherlink.com 1.10,2013-02-08 22:53:00,
2013-02-08 17:07:00,60.4,57.0,30.05,West,276,1.0,3.0,88,0.00,,,0.03,weatherlink.com 1.10,2013-02-08 23:07:00,
2013-02-08 17:22:00,59.6,57.0,30.05,WNW,291,0.0,2.0,90,0.00,,,0.03,weatherlink.com 1.10,2013-02-08 23:22:00,
2013-02-08 17:37:00,59.5,57.0,30.06,WNW,287,0.0,1.0,91,0.00,,,0.03,weatherlink.com 1.10,2013-02-08 23:37:00,
2013-02-08 17:52:00,59.4,57.0,30.06,WNW,298,2.0,4.0,90,0.00,,,0.03,weatherlink.com 1.10,2013-02-08 23:52:00,
2013-02-08 18:07:00,58.9,56.0,30.07,West,270,2.0,2.0,90,0.00,,,0.03,weatherlink.com 1.10,2013-02-09 00:07:00,
2013-02-08 18:22:00,58.9,56.0,30.08,WNW,302,5.0,10.0,89,0.00,,,0.03,weatherlink.com 1.10,2013-02-09 00:22:00,
2013-02-08 18:37:00,58.0,55.0,30.09,WNW,290,3.0,7.0,89,0.00,,,0.03,weatherlink.com 1.10,2013-02-09 00:37:00,
2013-02-08 18:52:00,57.4,54.0,30.09,West,267,1.0,9.0,89,0.00,,,0.03,weatherlink.com 1.10,2013-02-09 00:52:00,
2013-02-08 19:07:00,56.8,54.0,30.10,NW,325,2.0,8.0,89,0.00,,,0.03,weatherlink.com 1.10,2013-02-09 01:07:00,
2013-02-08 19:22:00,56.4,53.0,30.10,NNW,347,5.0,5.0,89,0.00,,,0.03,weatherlink.com 1.10,2013-02-09 01:22:00,
2013-02-08 19:37:00,56.1,53.0,30.11,WNW,293,3.0,3.0,90,0.00,,,0.03,weatherlink.com 1.10,2013-02-09 01:37:00,
2013-02-08 19:52:00,56.0,53.0,30.11,WNW,300,2.0,5.0,90,0.00,,,0.03,weatherlink.com 1.10,2013-02-09 01:52:00,
2013-02-08 20:07:00,55.9,53.0,30.12,WNW,298,1.0,3.0,90,0.00,,,0.03,weatherlink.com 1.10,2013-02-09 02:07:00,
2013-02-08 20:22:00,55.8,53.0,30.13,WNW,287,0.0,4.0,90,0.00,,,0.03,weatherlink.com 1.10,2013-02-09 02:22:00,
2013-02-08 20:37:00,55.6,52.0,30.13,NW,307,3.0,9.0,88,0.00,,,0.03,weatherlink.com 1.10,2013-02-09 02:37:00,
2013-02-08 20:52:00,55.5,52.0,30.14,West,277,1.0,3.0,89,0.00,,,0.03,weatherlink.com 1.10,2013-02-09 02:52:00,
2013-02-08 21:07:00,55.3,52.0,30.14,WNW,286,1.0,5.0,88,0.00,,,0.03,weatherlink.com 1.10,2013-02-09 03:07:00,
2013-02-08 21:22:00,55.1,51.0,30.15,WNW,290,1.0,5.0,87,0.00,,,0.03,weatherlink.com 1.10,2013-02-09 03:22:00,
2013-02-08 21:38:00,55.0,51.0,30.15,WNW,283,1.0,5.0,87,0.00,,,0.03,weatherlink.com 1.10,2013-02-09 03:38:00,
2013-02-08 21:53:00,54.8,51.0,30.15,West,281,1.0,3.0,88,0.00,,,0.03,weatherlink.com 1.10,2013-02-09 03:53:00,
2013-02-08 22:08:00,54.7,51.0,30.15,West,279,0.0,3.0,88,0.00,,,0.03,weatherlink.com 1.10,2013-02-09 04:08:00,
2013-02-08 22:23:00,54.4,51.0,30.15,WNW,301,1.0,6.0,87,0.00,,,0.03,weatherlink.com 1.10,2013-02-09 04:23:00,
2013-02-08 22:38:00,54.1,50.0,30.15,WNW,288,2.0,4.0,87,0.00,,,0.03,weatherlink.com 1.10,2013-02-09 04:38:00,
2013-02-08 22:53:00,53.4,49.0,30.16,West,279,1.0,10.0,84,0.00,,,0.03,weatherlink.com 1.10,2013-02-09 04:53:00,
2013-02-08 23:08:00,52.2,48.0,30.16,NW,307,0.0,8.0,84,0.00,,,0.03,weatherlink.com 1.10,2013-02-09 05:08:00,
2013-02-08 23:23:00,51.1,47.0,30.16,WNW,290,1.0,2.0,86,0.00,,,0.03,weatherlink.com 1.10,2013-02-09 05:23:00,
2013-02-08 23:38:00,50.3,46.0,30.17,ESE,113,1.0,4.0,86,0.00,,,0.03,weatherlink.com 1.10,2013-02-09 05:38:00,
2013-02-08 23:53:00,49.1,45.0,30.17,WNW,292,2.0,3.0,87,0.00,,,0.03,weatherlink.com 1.10,2013-02-09 05:53:00,